createdAt,value
2022-11-03T00:01:37.443Z,99.79
2022-11-03T00:04:05.739Z,99.95
2022-11-03T00:06:33.975Z,99.87
2022-11-03T00:09:02.603Z,99.87
2022-11-03T00:11:32.736Z,100.00
2022-11-03T00:14:00.259Z,100.00
2022-11-03T00:16:28.213Z,100.00
2022-11-03T00:18:57.318Z,99.85
2022-11-03T00:21:25.025Z,99.79
2022-11-03T00:23:52.911Z,99.30
2022-11-03T00:26:22.240Z,99.32
2022-11-03T00:28:51.256Z,99.00
2022-11-03T00:31:20.504Z,98.99
2022-11-03T00:33:49.188Z,99.39
2022-11-03T00:36:20.761Z,99.41
2022-11-03T00:38:49.096Z,99.60
2022-11-03T00:41:21.013Z,99.45
2022-11-03T00:43:49.515Z,99.86
2022-11-03T00:46:17.863Z,99.78
2022-11-03T00:48:45.948Z,99.72
2022-11-03T00:51:15.226Z,100.00
2022-11-03T00:53:46.044Z,99.88
2022-11-03T00:56:15.231Z,99.45
2022-11-03T00:58:43.537Z,100.00
2022-11-03T01:01:12.729Z,99.81
2022-11-03T01:03:42.216Z,99.81
2022-11-03T01:06:30.023Z,100.00
2022-11-03T01:09:00.057Z,99.86
2022-11-03T01:11:46.535Z,100.00
2022-11-03T01:14:16.817Z,99.49
2022-11-03T01:16:44.562Z,99.81
2022-11-03T01:19:12.205Z,100.00
2022-11-03T01:21:39.733Z,100.00
2022-11-03T01:24:08.679Z,100.00
2022-11-03T01:26:36.214Z,100.00
2022-11-03T01:29:05.250Z,100.00
2022-11-03T01:31:32.876Z,100.00
2022-11-03T01:34:00.499Z,100.00
2022-11-03T01:36:28.143Z,100.00
2022-11-03T01:38:56.683Z,100.00
2022-11-03T01:41:27.806Z,100.00
2022-11-03T01:44:25.322Z,100.00
2022-11-03T01:46:56.198Z,100.00
2022-11-03T01:49:29.029Z,100.00
2022-11-03T01:52:02.869Z,100.00
2022-11-03T01:54:31.787Z,100.00
2022-11-03T01:57:01.611Z,100.00
2022-11-03T01:59:29.765Z,100.00
2022-11-03T02:01:57.382Z,100.00
2022-11-03T02:04:29.997Z,100.00
2022-11-03T02:07:09.666Z,100.00
2022-11-03T02:09:37.196Z,100.00
2022-11-03T02:12:10.147Z,100.00
2022-11-03T02:14:43.557Z,100.00
2022-11-03T02:17:12.512Z,100.00
2022-11-03T02:19:43.819Z,100.00
2022-11-03T02:22:32.224Z,100.00
2022-11-03T02:25:06.217Z,100.00
2022-11-03T02:27:35.165Z,99.89
2022-11-03T02:30:04.370Z,100.00
2022-11-03T02:32:38.302Z,100.00
2022-11-03T02:35:12.147Z,100.00
2022-11-03T02:37:44.243Z,100.00
2022-11-03T02:40:15.789Z,100.00
2022-11-03T02:42:50.722Z,99.56
2022-11-03T02:45:20.907Z,99.70
2022-11-03T02:47:50.006Z,99.16
2022-11-03T02:50:19.939Z,98.95
2022-11-03T02:52:48.258Z,99.26
2022-11-03T02:55:21.530Z,99.20
2022-11-03T02:57:55.028Z,99.44
2022-11-03T03:00:22.887Z,99.04
2022-11-03T03:02:57.063Z,99.92
2022-11-03T03:05:28.789Z,99.41
2022-11-03T03:08:02.354Z,100.00
2022-11-03T03:10:34.634Z,99.91
2022-11-03T03:13:07.772Z,99.97
2022-11-03T03:15:41.770Z,100.00
2022-11-03T03:18:21.022Z,99.87
2022-11-03T03:20:56.380Z,99.91
2022-11-03T03:23:26.333Z,100.00
2022-11-03T03:25:59.268Z,100.00
2022-11-03T03:28:34.873Z,100.00
2022-11-03T03:31:06.523Z,100.00
2022-11-03T03:33:35.280Z,100.00
2022-11-03T03:36:05.350Z,100.00
2022-11-03T03:38:36.913Z,100.00
2022-11-03T03:41:10.565Z,100.00
2022-11-03T03:43:42.496Z,100.00
2022-11-03T03:46:13.017Z,100.00
2022-11-03T03:48:40.768Z,100.00
2022-11-03T03:51:08.595Z,100.00
2022-11-03T03:53:36.178Z,100.00
2022-11-03T03:56:05.607Z,100.00
2022-11-03T03:58:33.409Z,100.00
2022-11-03T04:01:02.359Z,100.00
2022-11-03T04:03:30.312Z,100.00
2022-11-03T04:05:57.853Z,100.00
2022-11-03T04:08:25.454Z,100.00
2022-11-03T04:11:10.791Z,100.00
2022-11-03T04:13:56.162Z,100.00
2022-11-03T04:16:42.807Z,100.00
2022-11-03T04:19:29.959Z,100.00
2022-11-03T04:22:15.299Z,100.00
2022-11-03T04:24:43.047Z,100.00
2022-11-03T04:27:29.962Z,99.83
2022-11-03T04:29:59.191Z,99.63
2022-11-03T04:32:29.834Z,100.00
2022-11-03T04:34:57.485Z,100.00
2022-11-03T04:37:28.271Z,100.00
2022-11-03T04:39:59.863Z,100.00
2022-11-03T04:42:28.702Z,100.00
2022-11-03T04:44:56.491Z,100.00
2022-11-03T04:47:23.999Z,100.00
2022-11-03T04:49:52.921Z,100.00
2022-11-03T04:52:22.711Z,99.82
2022-11-03T04:54:52.222Z,99.88
2022-11-03T04:57:19.955Z,100.00
2022-11-03T04:59:50.600Z,100.00
2022-11-03T05:02:20.580Z,100.00
2022-11-03T05:04:48.231Z,100.00
2022-11-03T05:07:26.904Z,100.00
2022-11-03T05:09:54.650Z,100.00
2022-11-03T05:12:22.516Z,100.00
2022-11-03T05:14:55.452Z,100.00
2022-11-03T05:17:28.239Z,100.00
2022-11-03T05:19:59.047Z,100.00
2022-11-03T05:22:31.615Z,100.00
2022-11-03T05:25:08.710Z,100.00
2022-11-03T05:27:36.285Z,100.00
2022-11-03T05:30:05.697Z,100.00
2022-11-03T05:32:35.254Z,100.00
2022-11-03T05:35:04.063Z,100.00
2022-11-03T05:37:34.800Z,100.00
2022-11-03T05:40:15.747Z,100.00
2022-11-03T05:42:45.649Z,100.00
2022-11-03T05:45:20.644Z,100.00
2022-11-03T05:47:49.877Z,100.00
2022-11-03T05:50:21.147Z,100.00
2022-11-03T05:52:52.574Z,100.00
2022-11-03T05:55:28.813Z,100.00
2022-11-03T05:57:58.264Z,100.00
2022-11-03T06:00:32.394Z,100.00
2022-11-03T06:03:00.912Z,100.00
2022-11-03T06:05:29.222Z,100.00
2022-11-03T06:08:03.111Z,100.00
2022-11-03T06:10:32.891Z,100.00
2022-11-03T06:13:05.032Z,100.00
2022-11-03T06:15:35.730Z,100.00
2022-11-03T06:18:14.009Z,100.00
2022-11-03T06:20:42.030Z,99.03
2022-11-03T06:23:13.254Z,98.31
2022-11-03T06:25:41.898Z,98.32
2022-11-03T06:28:15.712Z,98.03
2022-11-03T06:30:43.829Z,99.31
2022-11-03T06:33:16.530Z,98.86
2022-11-03T06:35:44.782Z,98.01
2022-11-03T06:38:18.921Z,97.62
2022-11-03T06:40:46.964Z,98.11
2022-11-03T06:43:24.684Z,97.49
2022-11-03T06:45:54.931Z,98.58
2022-11-03T06:48:28.295Z,99.02
2022-11-03T06:50:56.406Z,99.32
2022-11-03T06:53:32.391Z,98.92
2022-11-03T06:56:00.562Z,99.33
2022-11-03T06:58:33.718Z,98.81
2022-11-03T07:01:04.203Z,99.38
2022-11-03T07:03:35.075Z,100.00
2022-11-03T07:06:13.739Z,100.00
2022-11-03T07:08:45.244Z,100.00
2022-11-03T07:11:17.587Z,99.68
2022-11-03T07:13:46.266Z,98.84
2022-11-03T07:16:18.649Z,98.85
2022-11-03T07:18:47.587Z,99.51
2022-11-03T07:21:31.858Z,100.00
2022-11-03T07:24:03.212Z,99.95
2022-11-03T07:26:31.202Z,100.00
2022-11-03T07:29:01.475Z,99.82
2022-11-03T07:31:29.040Z,99.56
2022-11-03T07:33:58.824Z,99.03
2022-11-03T07:36:30.121Z,98.10
2022-11-03T07:39:00.885Z,97.47
2022-11-03T07:41:34.613Z,100.00
2022-11-03T07:44:02.863Z,100.00
2022-11-03T07:46:30.420Z,97.70
2022-11-03T07:48:59.267Z,96.79
2022-11-03T07:51:30.647Z,97.39
2022-11-03T07:54:03.574Z,97.32
2022-11-03T07:56:36.403Z,98.51
2022-11-03T07:59:12.257Z,97.60
2022-11-03T08:01:43.251Z,97.50
2022-11-03T08:04:13.981Z,97.62
2022-11-03T08:06:41.525Z,97.06
2022-11-03T08:09:09.171Z,97.17
2022-11-03T08:11:38.149Z,96.10
2022-11-03T08:14:05.693Z,96.41
2022-11-03T08:16:33.265Z,96.55
2022-11-03T08:19:00.835Z,96.74
2022-11-03T08:21:28.379Z,97.30
2022-11-03T08:23:56.110Z,97.28
2022-11-03T08:26:23.714Z,96.51
2022-11-03T08:28:53.058Z,95.98
2022-11-03T08:31:20.660Z,96.07
2022-11-03T08:33:48.250Z,95.77
2022-11-03T08:36:15.878Z,96.30
2022-11-03T08:38:43.416Z,97.01
2022-11-03T08:41:10.971Z,96.66
2022-11-03T08:43:38.523Z,96.24
2022-11-03T08:46:16.709Z,95.19
2022-11-03T08:48:45.712Z,94.49
2022-11-03T08:51:14.471Z,95.06
2022-11-03T08:53:43.377Z,94.12
2022-11-03T08:56:13.108Z,92.79
2022-11-03T08:58:42.073Z,92.18
2022-11-03T09:01:11.263Z,91.92
2022-11-03T09:03:39.068Z,92.07
2022-11-03T09:06:07.214Z,90.83
2022-11-03T09:11:22.339Z,91.37
2022-11-03T09:13:49.871Z,90.17
2022-11-03T09:16:18.714Z,89.05
2022-11-03T09:18:46.473Z,89.08
2022-11-03T09:21:14.769Z,88.30
2022-11-03T09:23:44.735Z,88.04
2022-11-03T09:26:12.308Z,86.58
2022-11-03T09:28:39.924Z,86.43
2022-11-03T09:31:07.509Z,85.74
2022-11-03T09:33:36.949Z,86.13
2022-11-03T09:36:04.645Z,86.34
2022-11-03T09:38:32.187Z,86.16
2022-11-03T09:41:00.387Z,85.36
2022-11-03T09:43:28.047Z,85.61
2022-11-03T09:45:55.647Z,84.96
2022-11-03T09:48:23.319Z,83.69
2022-11-03T09:50:55.454Z,83.79
2022-11-03T09:53:23.224Z,85.23
2022-11-03T09:55:50.837Z,92.51
2022-11-03T09:58:19.050Z,88.16
2022-11-03T10:00:47.105Z,84.27
2022-11-03T10:03:17.962Z,82.72
2022-11-03T10:05:46.466Z,83.43
2022-11-03T10:08:25.852Z,83.52
2022-11-03T10:10:53.760Z,82.61
2022-11-03T10:13:31.426Z,82.73
2022-11-03T10:16:01.209Z,83.01
2022-11-03T10:18:29.464Z,87.89
2022-11-03T10:21:07.392Z,87.42
2022-11-03T10:23:36.283Z,85.58
2022-11-03T10:26:11.133Z,84.60
2022-11-03T10:28:39.416Z,83.97
2022-11-03T10:31:18.786Z,82.73
2022-11-03T10:33:52.946Z,82.28
2022-11-03T10:36:25.569Z,81.40
2022-11-03T10:38:54.684Z,82.09
2022-11-03T10:41:24.038Z,80.04
2022-11-03T10:44:04.261Z,79.59
2022-11-03T10:49:21.457Z,75.90
2022-11-03T10:51:51.352Z,75.84
2022-11-03T10:54:23.039Z,75.20
2022-11-03T10:56:52.269Z,75.87
2022-11-03T10:59:21.680Z,75.93
2022-11-03T11:01:49.619Z,76.56
2022-11-03T11:04:19.151Z,76.49
2022-11-03T11:06:48.294Z,78.36
2022-11-03T11:09:23.142Z,79.26
2022-11-03T11:12:02.323Z,76.56
2022-11-03T11:14:39.113Z,75.97
2022-11-03T11:17:07.345Z,77.40
2022-11-03T11:20:07.959Z,77.30
2022-11-03T11:22:35.587Z,77.21
2022-11-03T11:25:04.688Z,77.80
2022-11-03T11:28:00.905Z,77.86
2022-11-03T11:31:05.215Z,77.23
2022-11-03T11:33:34.983Z,75.82
2022-11-03T11:36:21.589Z,74.87
2022-11-03T11:39:11.391Z,75.98
2022-11-03T11:42:13.282Z,74.65
2022-11-03T11:44:53.893Z,75.31
2022-11-03T11:47:40.734Z,76.39
2022-11-03T11:50:38.585Z,75.86
2022-11-03T11:53:20.648Z,76.55
2022-11-03T11:55:51.906Z,76.42
2022-11-03T11:58:25.235Z,76.44
2022-11-03T12:00:55.475Z,77.13
2022-11-03T12:03:29.248Z,76.40
2022-11-03T12:05:56.923Z,77.23
2022-11-03T12:08:31.745Z,77.24
2022-11-03T12:11:01.959Z,78.09
2022-11-03T12:13:48.491Z,80.92
2022-11-03T12:16:43.003Z,78.61
2022-11-03T12:19:39.904Z,80.97
2022-11-03T12:22:10.172Z,81.84
2022-11-03T12:24:49.519Z,82.38
2022-11-03T12:27:43.142Z,81.57
2022-11-03T12:30:17.470Z,81.63
2022-11-03T12:32:45.935Z,81.00
2022-11-03T12:35:14.501Z,79.87
2022-11-03T12:37:42.966Z,79.84
2022-11-03T12:40:13.277Z,80.62
2022-11-03T12:42:40.847Z,81.25
2022-11-03T12:45:09.354Z,81.00
2022-11-03T12:47:38.286Z,81.76
2022-11-03T12:50:06.241Z,82.48
2022-11-03T12:52:33.804Z,81.56
2022-11-03T12:55:01.374Z,81.83
2022-11-03T12:57:28.933Z,84.67
2022-11-03T12:59:56.475Z,83.60
2022-11-03T13:02:24.268Z,82.40
2022-11-03T13:04:53.204Z,80.48
2022-11-03T13:07:27.731Z,81.05
2022-11-03T13:09:58.023Z,81.45
2022-11-03T13:12:36.535Z,82.31
2022-11-03T13:15:06.602Z,82.68
2022-11-03T13:17:52.343Z,82.60
2022-11-03T13:20:24.475Z,82.41
2022-11-03T13:22:52.348Z,83.29
2022-11-03T13:25:19.981Z,84.53
2022-11-03T13:27:53.570Z,83.43
2022-11-03T13:30:21.483Z,83.40
2022-11-03T13:32:49.209Z,81.68
2022-11-03T13:35:17.556Z,85.41
2022-11-03T13:37:46.999Z,86.42
2022-11-03T13:40:35.637Z,87.09
2022-11-03T13:43:03.448Z,86.11
2022-11-03T13:45:31.031Z,85.70
2022-11-03T13:50:46.289Z,84.50
2022-11-03T13:56:06.995Z,82.24
2022-11-03T14:01:24.127Z,82.74
2022-11-03T14:06:39.440Z,83.40
2022-11-03T14:09:08.402Z,84.04
2022-11-03T14:11:53.595Z,83.48
2022-11-03T14:14:21.169Z,83.23
2022-11-03T14:16:48.760Z,83.33
2022-11-03T14:19:16.367Z,83.01
2022-11-03T14:21:44.064Z,83.44
2022-11-03T14:24:13.011Z,83.22
2022-11-03T14:26:42.808Z,83.45
2022-11-03T14:29:11.090Z,83.47
2022-11-03T14:31:38.688Z,83.90
2022-11-03T14:34:06.279Z,83.54
2022-11-03T14:36:33.850Z,84.03
2022-11-03T14:39:01.458Z,84.11
2022-11-03T14:41:47.790Z,84.92
2022-11-03T14:44:15.347Z,85.93
2022-11-03T14:46:42.969Z,86.34
2022-11-03T14:49:10.519Z,86.78
2022-11-03T14:51:38.090Z,87.34
2022-11-03T14:54:05.612Z,87.27
2022-11-03T14:56:34.626Z,87.01
2022-11-03T14:59:02.200Z,86.37
2022-11-03T15:01:29.990Z,86.19
2022-11-03T15:03:57.667Z,86.34
2022-11-03T15:06:25.219Z,86.92
2022-11-03T15:08:56.441Z,87.39
2022-11-03T15:11:24.411Z,88.20
2022-11-03T15:13:54.352Z,88.99
2022-11-03T15:16:22.158Z,89.64
2022-11-03T15:18:50.167Z,90.72
2022-11-03T15:21:18.010Z,91.32
2022-11-03T15:26:33.063Z,93.05
2022-11-03T15:29:01.922Z,93.52
2022-11-03T15:31:29.502Z,96.83
2022-11-03T15:33:57.197Z,94.35
2022-11-03T15:36:27.068Z,94.31
2022-11-03T15:38:54.665Z,93.85
2022-11-03T15:41:22.276Z,94.04
2022-11-03T15:43:51.255Z,94.22
2022-11-03T15:46:20.526Z,94.83
2022-11-03T15:48:49.035Z,95.35
2022-11-03T15:51:16.579Z,95.22
2022-11-03T15:53:44.586Z,95.92
2022-11-03T15:56:12.134Z,95.95
2022-11-03T15:58:39.634Z,96.49
2022-11-03T16:01:07.364Z,96.45
2022-11-03T16:03:36.292Z,97.03
2022-11-03T16:06:03.860Z,96.86
2022-11-03T16:08:31.484Z,97.20
2022-11-03T16:10:58.999Z,96.96
2022-11-03T16:13:26.677Z,97.18
2022-11-03T16:15:54.741Z,97.30
2022-11-03T16:18:22.595Z,97.75
2022-11-03T16:20:51.514Z,97.47
2022-11-03T16:23:19.157Z,97.83
2022-11-03T16:25:46.768Z,98.05
2022-11-03T16:28:14.512Z,98.11
2022-11-03T16:30:42.026Z,98.46
2022-11-03T16:33:10.017Z,98.27
2022-11-03T16:35:37.519Z,98.98
2022-11-03T16:38:08.105Z,98.85
2022-11-03T16:40:36.703Z,98.75
2022-11-03T16:43:04.279Z,99.29
2022-11-03T16:45:37.298Z,98.98
2022-11-03T16:48:07.562Z,98.16
2022-11-03T16:50:35.727Z,97.16
2022-11-03T16:53:03.873Z,97.05
2022-11-03T16:55:32.824Z,97.22
2022-11-03T16:58:00.427Z,97.23
2022-11-03T17:00:28.109Z,96.53
2022-11-03T17:02:55.681Z,97.10
2022-11-03T17:05:23.248Z,97.29
2022-11-03T17:07:54.066Z,97.80
2022-11-03T17:10:21.998Z,98.40
2022-11-03T17:12:50.965Z,99.05
2022-11-03T17:15:18.602Z,99.23
2022-11-03T17:17:46.182Z,99.71
2022-11-03T17:20:14.358Z,99.81
2022-11-03T17:22:41.878Z,99.92
2022-11-03T17:25:11.896Z,100.00
2022-11-03T17:27:44.089Z,100.00
2022-11-03T17:30:17.933Z,100.00
2022-11-03T17:32:45.535Z,100.00
2022-11-03T17:35:18.978Z,100.00
2022-11-03T17:37:46.381Z,100.00
2022-11-03T17:40:16.737Z,100.00
2022-11-03T17:42:44.778Z,100.00
2022-11-03T17:45:15.200Z,100.00
2022-11-03T17:47:42.929Z,100.00
2022-11-03T17:50:14.456Z,100.00
2022-11-03T17:52:42.771Z,100.00
2022-11-03T17:55:18.226Z,100.00
2022-11-03T17:57:46.387Z,100.00
2022-11-03T18:00:20.587Z,100.00
2022-11-03T18:02:49.596Z,100.00
2022-11-03T18:05:23.375Z,100.00
2022-11-03T18:07:51.287Z,100.00
2022-11-03T18:10:18.871Z,100.00
2022-11-03T18:13:06.746Z,100.00
2022-11-03T18:15:39.037Z,100.00
2022-11-03T18:18:13.628Z,100.00
2022-11-03T18:20:50.350Z,100.00
2022-11-03T18:23:22.393Z,100.00
2022-11-03T18:25:51.017Z,100.00
2022-11-03T18:28:19.396Z,100.00
2022-11-03T18:30:50.814Z,100.00
2022-11-03T18:33:22.974Z,100.00
2022-11-03T18:35:51.053Z,100.00
2022-11-03T18:38:19.018Z,100.00
2022-11-03T18:40:46.651Z,100.00
2022-11-03T18:43:16.279Z,100.00
2022-11-03T18:45:43.985Z,100.00
2022-11-03T18:48:19.167Z,100.00
2022-11-03T18:50:49.269Z,100.00
2022-11-03T18:53:18.599Z,100.00
2022-11-03T18:55:46.748Z,100.00
2022-11-03T18:58:18.843Z,100.00
2022-11-03T19:00:46.598Z,100.00
2022-11-03T19:03:17.784Z,100.00
2022-11-03T19:05:47.597Z,100.00
2022-11-03T19:08:21.750Z,100.00
2022-11-03T19:10:50.175Z,100.00
2022-11-03T19:13:23.654Z,100.00
2022-11-03T19:15:51.581Z,100.00
2022-11-03T19:18:20.850Z,100.00
2022-11-03T19:20:48.396Z,100.00
2022-11-03T19:23:16.079Z,100.00
2022-11-03T19:25:44.227Z,100.00
2022-11-03T19:28:14.537Z,100.00
2022-11-03T19:30:42.562Z,100.00
2022-11-03T19:33:19.465Z,100.00
2022-11-03T19:35:49.339Z,100.00
2022-11-03T19:38:19.983Z,100.00
2022-11-03T19:41:02.010Z,100.00
2022-11-03T19:43:34.346Z,100.00
2022-11-03T19:46:02.695Z,100.00
2022-11-03T19:48:34.136Z,100.00
2022-11-03T19:51:04.451Z,100.00
2022-11-03T19:53:33.157Z,100.00
2022-11-03T19:56:01.257Z,100.00
2022-11-03T19:58:30.290Z,100.00
2022-11-03T20:01:02.837Z,100.00
2022-11-03T20:03:33.389Z,100.00
2022-11-03T20:06:01.107Z,100.00
2022-11-03T20:08:32.136Z,100.00
2022-11-03T20:10:59.732Z,100.00
2022-11-03T20:13:31.360Z,100.00
2022-11-03T20:16:01.058Z,100.00
2022-11-03T20:18:29.493Z,100.00
2022-11-03T20:20:57.406Z,100.00
2022-11-03T20:23:29.326Z,100.00
2022-11-03T20:25:58.555Z,100.00
2022-11-03T20:28:28.535Z,100.00
2022-11-03T20:30:57.017Z,100.00
2022-11-03T20:33:26.289Z,100.00
2022-11-03T20:35:55.782Z,100.00
2022-11-03T20:38:25.870Z,100.00
2022-11-03T20:40:58.444Z,100.00
2022-11-03T20:43:30.166Z,100.00
2022-11-03T20:45:58.371Z,100.00
2022-11-03T20:48:26.428Z,100.00
2022-11-03T20:50:55.094Z,100.00
2022-11-03T20:53:25.319Z,100.00
2022-11-03T20:55:54.017Z,100.00
2022-11-03T20:58:21.662Z,100.00
2022-11-03T21:00:50.865Z,100.00
2022-11-03T21:03:45.049Z,100.00
2022-11-03T21:06:10.213Z,100.00
2022-11-03T21:08:37.750Z,100.00
2022-11-03T21:11:28.299Z,100.00
2022-11-03T21:13:58.197Z,100.00
2022-11-03T21:16:46.801Z,100.00
2022-11-03T21:19:36.663Z,100.00
2022-11-03T21:22:30.716Z,100.00
2022-11-03T21:25:02.434Z,100.00
2022-11-03T21:27:30.102Z,100.00
2022-11-03T21:30:00.062Z,100.00
2022-11-03T21:32:29.438Z,100.00
2022-11-03T21:34:57.058Z,100.00
2022-11-03T21:37:24.635Z,99.51
2022-11-03T21:39:52.292Z,99.67
2022-11-03T21:42:37.397Z,99.41
2022-11-03T21:45:05.891Z,98.69
2022-11-03T21:47:34.766Z,99.00
2022-11-03T21:50:01.446Z,100.00
2022-11-03T21:52:32.513Z,99.19
2022-11-03T21:55:00.866Z,95.08
2022-11-03T21:57:29.265Z,94.14
2022-11-03T21:59:58.714Z,93.33
2022-11-03T22:02:26.559Z,91.16
2022-11-03T22:04:56.482Z,90.69
2022-11-03T22:07:24.429Z,90.81
2022-11-03T22:09:52.069Z,91.17
2022-11-03T22:12:19.601Z,89.29
2022-11-03T22:15:04.980Z,88.12
2022-11-03T22:17:32.506Z,89.19
2022-11-03T22:20:19.050Z,89.18
2022-11-03T22:23:04.289Z,87.89
2022-11-03T22:25:49.526Z,87.73
2022-11-03T22:28:17.348Z,87.67
2022-11-03T22:31:02.909Z,88.96
2022-11-03T22:33:30.426Z,88.20
2022-11-03T22:36:21.465Z,88.55
2022-11-03T22:39:07.183Z,88.64
2022-11-03T22:41:52.458Z,89.43
2022-11-03T22:44:37.977Z,90.27
2022-11-03T22:47:08.174Z,90.03
2022-11-03T22:49:36.201Z,89.46
2022-11-03T22:52:05.413Z,90.32
2022-11-03T22:54:31.976Z,89.09
2022-11-03T22:56:59.542Z,87.97
2022-11-03T22:59:27.037Z,88.36
2022-11-03T23:01:54.672Z,88.62
2022-11-03T23:04:22.296Z,88.73
2022-11-03T23:06:49.807Z,88.88
2022-11-03T23:09:18.729Z,88.13
2022-11-03T23:11:46.247Z,88.68
2022-11-03T23:14:13.770Z,88.46
2022-11-03T23:16:42.757Z,87.77
2022-11-03T23:19:30.163Z,88.49
2022-11-03T23:21:57.789Z,89.14
2022-11-03T23:24:45.544Z,88.76
2022-11-03T23:27:14.056Z,88.86
2022-11-03T23:29:41.731Z,87.92
2022-11-03T23:32:09.562Z,88.09
2022-11-03T23:34:37.150Z,88.60
2022-11-03T23:37:04.915Z,88.64
2022-11-03T23:39:33.819Z,88.41
2022-11-03T23:42:01.330Z,87.12
2022-11-03T23:44:49.835Z,86.31
2022-11-03T23:47:34.966Z,85.65
2022-11-03T23:50:02.510Z,86.24
2022-11-03T23:52:30.030Z,87.24
2022-11-03T23:54:58.890Z,86.88
2022-11-03T23:57:44.181Z,87.49
